createdAt,value
2022-08-31T00:01:05.080Z,102550.34
2022-08-31T00:03:50.423Z,102557.88
2022-08-31T00:06:18.012Z,102556.88
2022-08-31T00:08:45.568Z,102557.03
2022-08-31T00:11:14.391Z,102554.53
2022-08-31T00:13:42.479Z,102552.22
2022-08-31T00:16:12.686Z,102556.88
2022-08-31T00:18:40.565Z,102561.59
2022-08-31T00:21:08.162Z,102552.06
2022-08-31T00:23:35.728Z,102554.44
2022-08-31T00:26:03.309Z,102555.78
2022-08-31T00:28:30.972Z,102558.31
2022-08-31T00:30:58.524Z,102562.66
2022-08-31T00:33:27.425Z,102559.84
2022-08-31T00:35:55.010Z,102556.69
2022-08-31T00:38:22.756Z,102557.00
2022-08-31T00:40:50.386Z,102551.81
2022-08-31T00:43:35.614Z,102555.16
2022-08-31T00:46:03.300Z,102562.53
2022-08-31T00:48:32.563Z,102560.50
2022-08-31T00:51:00.843Z,102562.19
2022-08-31T00:53:29.192Z,102560.81
2022-08-31T00:55:56.844Z,102556.97
2022-08-31T00:58:24.798Z,102548.56
2022-08-31T01:00:52.887Z,102565.50
2022-08-31T01:03:21.518Z,102553.78
2022-08-31T01:05:51.454Z,102555.47
2022-08-31T01:08:19.088Z,102558.81
2022-08-31T01:10:54.598Z,102552.44
2022-08-31T01:13:23.084Z,102568.19
2022-08-31T01:15:58.788Z,102561.63
2022-08-31T01:18:26.433Z,102557.94
2022-08-31T01:21:05.202Z,102560.78
2022-08-31T01:23:38.696Z,102560.78
2022-08-31T01:26:09.064Z,102562.59
2022-08-31T01:28:36.902Z,102561.06
2022-08-31T01:31:07.497Z,102564.75
2022-08-31T01:33:37.725Z,102558.88
2022-08-31T01:36:06.856Z,102553.97
2022-08-31T01:38:36.422Z,102545.41
2022-08-31T01:41:05.377Z,102555.31
2022-08-31T01:43:34.487Z,102549.09
2022-08-31T01:46:02.903Z,102547.09
2022-08-31T01:48:33.121Z,102544.41
2022-08-31T01:51:02.327Z,102547.56
2022-08-31T01:53:29.941Z,102550.25
2022-08-31T01:55:58.954Z,102547.22
2022-08-31T01:58:26.700Z,102549.72
2022-08-31T02:00:54.405Z,102551.75
2022-08-31T02:03:22.010Z,102544.38
2022-08-31T02:05:49.656Z,102554.06
2022-08-31T02:08:17.233Z,102550.88
2022-08-31T02:10:45.780Z,102544.81
2022-08-31T02:13:14.781Z,102543.13
2022-08-31T02:15:42.395Z,102547.47
2022-08-31T02:18:09.945Z,102547.00
2022-08-31T02:20:39.758Z,102549.69
2022-08-31T02:23:07.679Z,102545.16
2022-08-31T02:25:35.512Z,102555.69
2022-08-31T02:28:03.429Z,102541.13
2022-08-31T02:30:32.574Z,102542.25
2022-08-31T02:33:00.136Z,102542.38
2022-08-31T02:35:27.674Z,102543.56
2022-08-31T02:37:55.260Z,102540.69
2022-08-31T02:40:23.182Z,102543.84
2022-08-31T02:42:53.121Z,102541.81
2022-08-31T02:45:21.988Z,102541.16
2022-08-31T02:47:51.282Z,102534.78
2022-08-31T02:50:19.093Z,102544.13
2022-08-31T02:52:46.845Z,102536.28
2022-08-31T02:55:14.673Z,102541.16
2022-08-31T02:57:42.241Z,102538.47
2022-08-31T03:00:11.661Z,102537.28
2022-08-31T03:02:41.051Z,102538.47
2022-08-31T03:05:11.159Z,102537.00
2022-08-31T03:07:39.256Z,102535.16
2022-08-31T03:10:10.361Z,102538.19
2022-08-31T03:12:39.041Z,102539.50
2022-08-31T03:15:07.697Z,102533.66
2022-08-31T03:17:35.514Z,102531.31
2022-08-31T03:20:05.055Z,102531.53
2022-08-31T03:22:35.044Z,102530.06
2022-08-31T03:25:04.800Z,102532.25
2022-08-31T03:27:32.416Z,102522.25
2022-08-31T03:30:00.183Z,102529.31
2022-08-31T03:32:28.327Z,102529.19
2022-08-31T03:34:57.439Z,102534.41
2022-08-31T03:37:25.497Z,102532.06
2022-08-31T03:39:54.440Z,102530.06
2022-08-31T03:42:22.413Z,102529.59
2022-08-31T03:44:50.037Z,102529.47
2022-08-31T03:47:17.744Z,102532.00
2022-08-31T03:49:46.029Z,102533.69
2022-08-31T03:52:13.856Z,102541.56
2022-08-31T03:54:41.576Z,102535.25
2022-08-31T03:57:10.715Z,102540.44
2022-08-31T03:59:38.325Z,102552.50
2022-08-31T04:02:05.890Z,102549.50
2022-08-31T04:04:33.642Z,102556.03
2022-08-31T04:07:01.231Z,102547.69
2022-08-31T04:09:29.204Z,102549.66
2022-08-31T04:11:56.820Z,102549.97
2022-08-31T04:14:25.741Z,102556.50
2022-08-31T04:16:53.313Z,102553.31
2022-08-31T04:19:20.969Z,102542.94
2022-08-31T04:21:50.037Z,102551.34
2022-08-31T04:24:17.587Z,102565.19
2022-08-31T04:26:45.149Z,102558.72
2022-08-31T04:29:13.750Z,102562.22
2022-08-31T04:31:43.214Z,102561.22
2022-08-31T04:34:10.806Z,102564.56
2022-08-31T04:36:38.634Z,102551.84
2022-08-31T04:39:07.853Z,102554.34
2022-08-31T04:41:37.987Z,102558.53
2022-08-31T04:44:05.801Z,102562.56
2022-08-31T04:46:36.468Z,102558.34
2022-08-31T04:49:07.852Z,102555.19
2022-08-31T04:51:35.925Z,102560.00
2022-08-31T04:54:05.873Z,102554.31
2022-08-31T04:56:36.052Z,102553.47
2022-08-31T04:59:06.255Z,102553.59
2022-08-31T05:01:42.707Z,102556.09
2022-08-31T05:04:14.118Z,102561.25
2022-08-31T05:06:44.361Z,102556.28
2022-08-31T05:09:13.977Z,102552.09
2022-08-31T05:11:41.614Z,102554.47
2022-08-31T05:14:10.564Z,102560.66
2022-08-31T05:16:38.976Z,102547.28
2022-08-31T05:19:07.681Z,102549.78
2022-08-31T05:21:38.781Z,102559.72
2022-08-31T05:24:09.350Z,102563.44
2022-08-31T05:26:42.086Z,102550.59
2022-08-31T05:29:10.429Z,102558.72
2022-08-31T05:31:38.805Z,102561.19
2022-08-31T05:34:06.977Z,102566.47
2022-08-31T05:36:36.344Z,102554.56
2022-08-31T05:39:04.024Z,102566.22
2022-08-31T05:41:32.325Z,102564.41
2022-08-31T05:43:59.881Z,102568.22
2022-08-31T05:46:27.454Z,102562.38
2022-08-31T05:48:55.073Z,102573.78
2022-08-31T05:51:22.673Z,102565.03
2022-08-31T05:53:52.333Z,102570.13
2022-08-31T05:56:23.391Z,102572.66
2022-08-31T05:58:51.326Z,102565.28
2022-08-31T06:01:21.330Z,102569.69
2022-08-31T06:03:49.411Z,102561.00
2022-08-31T06:06:17.989Z,102566.00
2022-08-31T06:08:46.217Z,102576.22
2022-08-31T06:11:19.264Z,102579.19
2022-08-31T06:13:47.921Z,102583.13
2022-08-31T06:16:17.518Z,102586.31
2022-08-31T06:18:50.611Z,102588.75
2022-08-31T06:21:20.987Z,102587.78
2022-08-31T06:23:50.591Z,102588.50
2022-08-31T06:26:22.994Z,102584.56
2022-08-31T06:28:52.371Z,102582.22
2022-08-31T06:31:24.391Z,102579.75
2022-08-31T06:33:52.859Z,102587.88
2022-08-31T06:36:22.409Z,102581.69
2022-08-31T06:38:50.693Z,102590.09
2022-08-31T06:41:22.220Z,102586.13
2022-08-31T06:43:50.118Z,102578.34
2022-08-31T06:46:19.159Z,102587.47
2022-08-31T06:48:48.125Z,102584.50
2022-08-31T06:51:16.027Z,102588.09
2022-08-31T06:53:43.780Z,102588.94
2022-08-31T06:56:20.137Z,102586.31
2022-08-31T06:58:53.874Z,102589.78
2022-08-31T07:01:35.816Z,102595.44
2022-08-31T07:04:06.325Z,102591.72
2022-08-31T07:06:37.906Z,102592.16
2022-08-31T07:09:08.145Z,102598.00
2022-08-31T07:11:43.540Z,102595.13
2022-08-31T07:14:15.284Z,102597.50
2022-08-31T07:16:43.949Z,102591.00
2022-08-31T07:19:12.687Z,102598.22
2022-08-31T07:21:42.937Z,102594.09
2022-08-31T07:24:11.493Z,102593.16
2022-08-31T07:26:42.347Z,102594.19
2022-08-31T07:29:11.504Z,102588.00
2022-08-31T07:31:44.581Z,102600.84
2022-08-31T07:34:14.267Z,102598.50
2022-08-31T07:37:00.318Z,102597.31
2022-08-31T07:39:46.653Z,102600.78
2022-08-31T07:42:16.485Z,102607.34
2022-08-31T07:44:52.932Z,102607.72
2022-08-31T07:47:28.253Z,102612.44
2022-08-31T07:50:00.946Z,102606.63
2022-08-31T07:52:31.025Z,102608.44
2022-08-31T07:55:04.862Z,102607.88
2022-08-31T07:57:36.179Z,102604.78
2022-08-31T08:00:08.666Z,102610.16
2022-08-31T08:02:39.120Z,102590.66
2022-08-31T08:05:08.047Z,102595.28
2022-08-31T08:07:36.813Z,102599.78
2022-08-31T08:10:07.288Z,102591.56
2022-08-31T08:12:36.170Z,102596.69
2022-08-31T08:15:06.842Z,102592.19
2022-08-31T08:17:34.714Z,102592.75
2022-08-31T08:20:04.789Z,102596.53
2022-08-31T08:22:51.339Z,102602.56
2022-08-31T08:25:25.774Z,102598.91
2022-08-31T08:27:55.157Z,102599.31
2022-08-31T08:30:23.226Z,102595.72
2022-08-31T08:32:50.838Z,102596.63
2022-08-31T08:35:20.269Z,102600.53
2022-08-31T08:37:58.520Z,102600.97
2022-08-31T08:40:37.187Z,102600.25
2022-08-31T08:43:06.054Z,102605.53
2022-08-31T08:45:34.862Z,102603.03
2022-08-31T08:48:12.638Z,102599.47
2022-08-31T08:50:42.769Z,102601.16
2022-08-31T08:53:15.189Z,102610.28
2022-08-31T08:55:43.381Z,102603.41
2022-08-31T08:58:13.589Z,102612.94
2022-08-31T09:00:46.558Z,102611.03
2022-08-31T09:03:24.261Z,102615.22
2022-08-31T09:06:01.893Z,102614.31
2022-08-31T09:09:08.643Z,102611.75
2022-08-31T09:11:49.404Z,102601.66
2022-08-31T09:14:32.477Z,102609.16
2022-08-31T09:17:10.161Z,102607.09
2022-08-31T09:19:54.583Z,102612.78
2022-08-31T09:22:23.539Z,102616.75
2022-08-31T09:24:52.922Z,102598.81
2022-08-31T09:27:40.680Z,102602.84
2022-08-31T09:30:09.525Z,102612.69
2022-08-31T09:32:37.701Z,102600.31
2022-08-31T09:35:09.333Z,102604.03
2022-08-31T09:37:46.140Z,102602.88
2022-08-31T09:40:19.532Z,102604.91
2022-08-31T09:43:04.030Z,102605.69
2022-08-31T09:45:37.795Z,102611.53
2022-08-31T09:48:09.883Z,102615.06
2022-08-31T09:50:44.961Z,102607.75
2022-08-31T09:53:35.033Z,102603.75
2022-08-31T09:56:15.389Z,102610.91
2022-08-31T09:58:47.840Z,102608.84
2022-08-31T10:01:20.917Z,102606.91
2022-08-31T10:03:49.880Z,102599.34
2022-08-31T10:06:43.973Z,102613.09
2022-08-31T10:09:26.060Z,102603.44
2022-08-31T10:11:57.520Z,102612.94
2022-08-31T10:14:33.241Z,102599.22
2022-08-31T10:17:05.621Z,102604.13
2022-08-31T10:19:44.252Z,102602.81
2022-08-31T10:22:25.408Z,102603.72
2022-08-31T10:25:06.429Z,102607.34
2022-08-31T10:27:40.353Z,102595.56
2022-08-31T10:30:13.310Z,102592.13
2022-08-31T10:32:49.789Z,102592.13
2022-08-31T10:35:23.041Z,102596.91
2022-08-31T10:37:59.453Z,102604.88
2022-08-31T10:40:33.159Z,102604.56
2022-08-31T10:43:11.200Z,102609.28
2022-08-31T10:45:43.613Z,102602.88
2022-08-31T10:48:12.954Z,102593.34
2022-08-31T10:50:47.464Z,102597.16
2022-08-31T10:53:32.545Z,102594.69
2022-08-31T10:56:14.309Z,102593.22
2022-08-31T10:58:55.073Z,102588.72
2022-08-31T11:01:28.898Z,102594.19
2022-08-31T11:04:44.610Z,102585.72
2022-08-31T11:07:37.256Z,102578.84
2022-08-31T11:10:19.850Z,102586.56
2022-08-31T11:12:57.706Z,102582.03
2022-08-31T11:15:51.872Z,102579.00
2022-08-31T11:18:53.437Z,102579.13
2022-08-31T11:21:38.793Z,102579.38
2022-08-31T11:24:27.509Z,102575.44
2022-08-31T11:27:06.360Z,102587.72
2022-08-31T11:29:43.728Z,102588.88
2022-08-31T11:32:20.377Z,102578.44
2022-08-31T11:34:53.393Z,102582.47
2022-08-31T11:38:00.510Z,102576.16
2022-08-31T11:41:03.650Z,102572.84
2022-08-31T11:43:52.237Z,102569.88
2022-08-31T11:46:59.769Z,102571.91
2022-08-31T11:49:43.729Z,102566.25
2022-08-31T11:52:43.101Z,102557.13
2022-08-31T11:55:46.610Z,102562.22
2022-08-31T11:58:26.837Z,102558.47
2022-08-31T12:00:59.560Z,102557.13
2022-08-31T12:03:52.518Z,102554.13
2022-08-31T12:07:11.032Z,102542.00
2022-08-31T12:09:55.656Z,102537.06
2022-08-31T12:12:37.830Z,102549.09
2022-08-31T12:15:17.426Z,102552.22
2022-08-31T12:17:58.503Z,102545.50
2022-08-31T12:20:32.002Z,102538.31
2022-08-31T12:23:37.563Z,102539.94
2022-08-31T12:26:20.828Z,102537.72
2022-08-31T12:29:11.001Z,102538.72
2022-08-31T12:31:41.453Z,102532.81
2022-08-31T12:34:13.864Z,102535.28
2022-08-31T12:36:41.513Z,102526.16
2022-08-31T12:39:11.436Z,102530.69
2022-08-31T12:41:43.696Z,102523.25
2022-08-31T12:44:14.056Z,102526.38
2022-08-31T12:46:58.660Z,102522.59
2022-08-31T12:49:50.351Z,102521.31
2022-08-31T12:52:34.125Z,102521.69
2022-08-31T12:55:22.090Z,102523.84
2022-08-31T12:58:00.588Z,102524.03
2022-08-31T13:00:30.665Z,102525.75
2022-08-31T13:03:01.373Z,102530.63
2022-08-31T13:05:30.905Z,102515.88
2022-08-31T13:07:59.234Z,102520.97
2022-08-31T13:10:31.152Z,102515.50
2022-08-31T13:13:02.797Z,102507.75
2022-08-31T13:15:38.583Z,102514.91
2022-08-31T13:18:12.072Z,102505.09
2022-08-31T13:20:43.301Z,102503.03
2022-08-31T13:23:14.690Z,102496.50
2022-08-31T13:25:42.876Z,102501.97
2022-08-31T13:28:30.027Z,102490.44
2022-08-31T13:31:03.259Z,102495.22
2022-08-31T13:33:33.180Z,102490.22
2022-08-31T13:36:04.971Z,102496.47
2022-08-31T13:38:50.744Z,102491.84
2022-08-31T13:41:27.314Z,102497.69
2022-08-31T13:44:02.665Z,102481.78
2022-08-31T13:46:43.000Z,102485.75
2022-08-31T13:49:25.232Z,102486.28
2022-08-31T13:51:53.041Z,102489.09
2022-08-31T13:54:28.107Z,102490.31
2022-08-31T13:56:55.918Z,102490.94
2022-08-31T13:59:36.918Z,102492.66
2022-08-31T14:02:28.622Z,102490.53
2022-08-31T14:05:08.108Z,102483.63
2022-08-31T14:08:08.188Z,102493.47
2022-08-31T14:10:38.152Z,102495.94
2022-08-31T14:13:09.971Z,102485.72
2022-08-31T14:15:41.001Z,102490.31
2022-08-31T14:18:25.665Z,102491.75
2022-08-31T14:21:22.704Z,102493.91
2022-08-31T14:23:53.384Z,102487.16
2022-08-31T14:26:26.324Z,102490.47
2022-08-31T14:28:56.404Z,102484.09
2022-08-31T14:31:27.064Z,102485.78
2022-08-31T14:34:08.673Z,102487.66
2022-08-31T14:36:50.244Z,102486.34
2022-08-31T14:39:17.816Z,102483.88
2022-08-31T14:41:45.788Z,102486.59
2022-08-31T14:44:14.177Z,102486.25
2022-08-31T14:46:43.610Z,102479.72
2022-08-31T14:49:11.208Z,102482.31
2022-08-31T14:51:41.780Z,102474.28
2022-08-31T14:54:09.864Z,102480.56
2022-08-31T14:56:45.303Z,102483.22
2022-08-31T14:59:16.145Z,102465.28
2022-08-31T15:01:45.464Z,102478.19
2022-08-31T15:04:14.802Z,102476.16
2022-08-31T15:06:49.668Z,102483.63
2022-08-31T15:09:17.381Z,102485.16
2022-08-31T15:11:45.845Z,102477.09
2022-08-31T15:14:13.964Z,102484.47
2022-08-31T15:16:42.940Z,102481.97
2022-08-31T15:19:13.576Z,102478.19
2022-08-31T15:21:52.739Z,102479.00
2022-08-31T15:24:26.485Z,102476.13
2022-08-31T15:26:58.513Z,102480.34
2022-08-31T15:29:30.199Z,102479.72
2022-08-31T15:31:59.717Z,102474.59
2022-08-31T15:34:30.238Z,102480.34
2022-08-31T15:37:02.192Z,102486.38
2022-08-31T15:39:32.548Z,102481.22
2022-08-31T15:42:01.228Z,102471.78
2022-08-31T15:44:28.786Z,102477.47
2022-08-31T15:47:14.077Z,102468.16
2022-08-31T15:49:43.529Z,102472.53
2022-08-31T15:52:12.974Z,102465.69
2022-08-31T15:54:42.011Z,102458.97
2022-08-31T15:57:11.158Z,102464.84
2022-08-31T15:59:39.941Z,102461.66
2022-08-31T16:02:08.509Z,102458.19
2022-08-31T16:04:38.416Z,102464.13
2022-08-31T16:07:07.454Z,102468.47
2022-08-31T16:09:37.254Z,102465.47
2022-08-31T16:12:05.845Z,102465.94
2022-08-31T16:14:33.457Z,102471.72
2022-08-31T16:17:01.056Z,102470.88
2022-08-31T16:19:35.477Z,102473.94
2022-08-31T16:22:05.913Z,102465.13
2022-08-31T16:24:37.208Z,102466.84
2022-08-31T16:27:08.424Z,102472.22
2022-08-31T16:29:37.380Z,102457.66
2022-08-31T16:32:06.614Z,102458.81
2022-08-31T16:34:34.686Z,102455.13
2022-08-31T16:37:07.115Z,102445.13
2022-08-31T16:39:36.017Z,102445.94
2022-08-31T16:42:04.134Z,102446.94
2022-08-31T16:44:37.040Z,102451.53
2022-08-31T16:47:06.628Z,102442.97
2022-08-31T16:49:33.777Z,102441.88
2022-08-31T16:52:03.291Z,102442.56
2022-08-31T16:54:31.441Z,102451.69
2022-08-31T16:56:59.570Z,102440.84
2022-08-31T16:59:29.020Z,102436.69
2022-08-31T17:01:59.508Z,102445.03
2022-08-31T17:04:51.010Z,102447.00
2022-08-31T17:07:17.303Z,102443.03
2022-08-31T17:09:45.682Z,102438.91
2022-08-31T17:12:16.996Z,102446.84
2022-08-31T17:14:48.114Z,102445.59
2022-08-31T17:17:18.955Z,102441.22
2022-08-31T17:19:47.571Z,102445.84
2022-08-31T17:22:22.729Z,102446.72
2022-08-31T17:24:56.257Z,102444.22
2022-08-31T17:27:25.502Z,102453.41
2022-08-31T17:29:55.906Z,102447.38
2022-08-31T17:32:27.241Z,102447.25
2022-08-31T17:34:55.981Z,102456.03
2022-08-31T17:37:27.030Z,102452.31
2022-08-31T17:39:56.354Z,102452.31
2022-08-31T17:42:26.716Z,102452.16
2022-08-31T17:44:55.277Z,102454.63
2022-08-31T17:47:26.588Z,102454.88
2022-08-31T17:49:55.006Z,102453.00
2022-08-31T17:52:23.720Z,102458.22
2022-08-31T17:54:52.216Z,102459.06
2022-08-31T17:57:24.892Z,102462.00
2022-08-31T17:59:54.647Z,102458.91
2022-08-31T18:02:31.085Z,102462.22
2022-08-31T18:04:58.901Z,102463.28
2022-08-31T18:07:26.669Z,102466.81
2022-08-31T18:09:54.393Z,102464.53
2022-08-31T18:12:22.779Z,102468.28
2022-08-31T18:14:50.868Z,102469.91
2022-08-31T18:17:21.492Z,102466.81
2022-08-31T18:19:50.681Z,102466.78
2022-08-31T18:22:19.675Z,102472.19
2022-08-31T18:24:47.283Z,102468.00
2022-08-31T18:27:16.040Z,102473.63
2022-08-31T18:29:45.041Z,102479.00
2022-08-31T18:32:13.147Z,102481.91
2022-08-31T18:34:44.092Z,102487.88
2022-08-31T18:37:13.787Z,102482.47
2022-08-31T18:39:57.145Z,102480.78
2022-08-31T18:42:45.396Z,102479.94
2022-08-31T18:45:19.799Z,102483.44
2022-08-31T18:48:13.708Z,102485.91
2022-08-31T18:50:38.455Z,102488.16
2022-08-31T18:53:10.666Z,102501.81
2022-08-31T18:55:42.631Z,102496.75
2022-08-31T18:58:10.447Z,102496.91
2022-08-31T19:00:40.116Z,102506.19
2022-08-31T19:03:08.319Z,102507.19
2022-08-31T19:05:39.564Z,102510.69
2022-08-31T19:08:08.588Z,102505.63
2022-08-31T19:10:36.933Z,102514.50
2022-08-31T19:13:07.814Z,102508.22
2022-08-31T19:15:39.708Z,102509.38
2022-08-31T19:18:07.489Z,102512.41
2022-08-31T19:20:36.157Z,102508.16
2022-08-31T19:23:03.814Z,102504.78
2022-08-31T19:25:32.797Z,102510.53
2022-08-31T19:28:01.795Z,102509.25
2022-08-31T19:30:30.139Z,102501.75
2022-08-31T19:32:57.976Z,102508.97
2022-08-31T19:35:27.429Z,102506.88
2022-08-31T19:37:56.203Z,102508.94
2022-08-31T19:40:35.585Z,102513.66
2022-08-31T19:45:54.574Z,102507.56
2022-08-31T19:48:23.255Z,102507.97
2022-08-31T19:50:51.596Z,102510.19
2022-08-31T19:53:21.237Z,102514.94
2022-08-31T19:55:50.870Z,102502.50
2022-08-31T19:58:25.161Z,102511.41
2022-08-31T20:01:00.593Z,102506.22
2022-08-31T20:03:31.102Z,102510.13
2022-08-31T20:05:59.794Z,102511.63
2022-08-31T20:08:27.501Z,102507.25
2022-08-31T20:10:55.460Z,102515.53
2022-08-31T20:13:27.622Z,102515.06
2022-08-31T20:15:56.889Z,102506.91
2022-08-31T20:18:28.085Z,102503.28
2022-08-31T20:20:56.631Z,102506.31
2022-08-31T20:23:24.508Z,102517.53
2022-08-31T20:25:53.115Z,102512.06
2022-08-31T20:28:26.304Z,102519.88
2022-08-31T20:30:59.969Z,102522.28
2022-08-31T20:33:28.710Z,102523.50
2022-08-31T20:35:56.261Z,102539.16
2022-08-31T20:38:24.895Z,102528.41
2022-08-31T20:40:52.770Z,102531.09
2022-08-31T20:43:21.395Z,102539.16
2022-08-31T20:45:49.336Z,102537.13
2022-08-31T20:48:35.937Z,102528.03
2022-08-31T20:51:16.007Z,102528.03
2022-08-31T20:53:44.394Z,102527.19
2022-08-31T20:56:17.004Z,102537.31
2022-08-31T20:58:45.704Z,102541.00
2022-08-31T21:01:15.979Z,102538.03
2022-08-31T21:03:45.021Z,102532.19
2022-08-31T21:06:13.007Z,102532.72
2022-08-31T21:08:42.416Z,102528.75
2022-08-31T21:11:12.276Z,102532.66
2022-08-31T21:13:39.904Z,102542.09
2022-08-31T21:16:07.774Z,102542.44
2022-08-31T21:18:36.919Z,102536.59
2022-08-31T21:21:08.147Z,102534.47
2022-08-31T21:23:37.127Z,102541.88
2022-08-31T21:26:07.488Z,102537.06
2022-08-31T21:28:38.219Z,102535.56
2022-08-31T21:31:15.412Z,102541.31
2022-08-31T21:33:44.528Z,102530.94
2022-08-31T21:36:15.966Z,102532.94
2022-08-31T21:38:47.341Z,102534.97
2022-08-31T21:41:17.738Z,102528.28
2022-08-31T21:43:45.481Z,102527.66
2022-08-31T21:46:16.076Z,102531.69
2022-08-31T21:48:45.690Z,102534.13
2022-08-31T21:51:17.782Z,102531.97
2022-08-31T21:53:47.739Z,102542.41
2022-08-31T21:56:15.806Z,102536.09
2022-08-31T21:58:43.945Z,102524.25
2022-08-31T22:01:18.144Z,102532.53
2022-08-31T22:03:46.299Z,102538.78
2022-08-31T22:06:22.047Z,102533.31
2022-08-31T22:09:00.059Z,102539.88
2022-08-31T22:11:30.081Z,102540.75
2022-08-31T22:13:59.485Z,102543.47
2022-08-31T22:16:27.929Z,102539.16
2022-08-31T22:19:01.385Z,102545.06
2022-08-31T22:21:34.439Z,102549.94
2022-08-31T22:24:05.526Z,102541.59
2022-08-31T22:26:36.900Z,102541.75
2022-08-31T22:29:06.279Z,102547.66
2022-08-31T22:31:37.065Z,102539.09
2022-08-31T22:34:05.693Z,102544.13
2022-08-31T22:36:35.442Z,102542.28
2022-08-31T22:39:04.258Z,102548.13
2022-08-31T22:41:32.875Z,102547.94
2022-08-31T22:44:01.059Z,102546.13
2022-08-31T22:46:28.802Z,102541.41
2022-08-31T22:48:58.029Z,102543.91
2022-08-31T22:51:26.075Z,102555.50
2022-08-31T22:53:55.025Z,102546.41
2022-08-31T22:56:25.869Z,102548.09
2022-08-31T22:58:53.936Z,102548.75
2022-08-31T23:01:23.563Z,102547.75
2022-08-31T23:03:51.591Z,102536.38
2022-08-31T23:06:20.552Z,102546.41
2022-08-31T23:08:49.778Z,102541.94
2022-08-31T23:11:20.313Z,102543.47
2022-08-31T23:13:57.129Z,102532.41
2022-08-31T23:16:27.168Z,102537.13
2022-08-31T23:18:57.552Z,102541.00
2022-08-31T23:21:25.788Z,102546.16
2022-08-31T23:23:53.955Z,102531.41
2022-08-31T23:26:27.496Z,102536.44
2022-08-31T23:28:56.365Z,102530.88
2022-08-31T23:31:24.582Z,102536.91
2022-08-31T23:33:53.366Z,102530.72
2022-08-31T23:36:25.827Z,102535.09
2022-08-31T23:38:54.737Z,102531.56
2022-08-31T23:41:25.934Z,102522.13
2022-08-31T23:43:54.588Z,102519.09
2022-08-31T23:46:23.762Z,102520.28
2022-08-31T23:48:52.103Z,102515.38
2022-08-31T23:51:20.706Z,102518.38
2022-08-31T23:53:55.229Z,102517.53
2022-08-31T23:56:32.820Z,102525.22
2022-08-31T23:59:01.011Z,102515.16
